Archival Weather

Tokyo Intl

Tokyo, Japan (RJTT)

Report from: Tuesday, November 21, 2023 2:00 PM JST
Current time: Saturday, March 2, 2024 6:38 PM JST

Current weather – Weather history – Daily summaries
Weather forecast

Temperature15.0°C (59.0°F)
Dew point8.0°C (46.4°F)
Winds 6 kts (3.1 m/s, 6.9 mph) South (170°)
Visibility6.2 mi. (10 km)
Clouds Few clouds 3,000 ft. (914 m)
Ceiling: Broken clouds 4,500 ft. (1,372 m)
Altimeter30.12 in.Hg (1020 mB)
Relative humidity63 %
Density altitude-74 ft. (-22 m)
Remarks No significant changes expected in the next two hours
Flight conditions Visual Meteorological Conditions
Raw dataRJTT 210500Z 17006KT 9999 FEW030 BKN045 15/08 Q1020 NOSIG
An error has occurred. This application may no longer respond until reloaded. Reload 🗙